createdAt,value
2019-05-23T00:02:20.918Z,84.62
2019-05-23T00:05:27.995Z,85.24
2019-05-23T00:08:24.322Z,84.30
2019-05-23T00:11:03.647Z,83.71
2019-05-23T00:13:57.871Z,84.33
2019-05-23T00:16:28.782Z,85.48
2019-05-23T00:19:00.466Z,84.94
2019-05-23T00:21:33.043Z,84.77
2019-05-23T00:24:04.014Z,84.66
2019-05-23T00:26:34.551Z,84.24
2019-05-23T00:29:10.668Z,84.02
2019-05-23T00:31:46.052Z,84.09
2019-05-23T00:34:17.973Z,84.37
2019-05-23T00:36:48.453Z,84.59
2019-05-23T00:39:19.883Z,84.38
2019-05-23T00:41:50.745Z,84.76
2019-05-23T00:44:20.997Z,84.69
2019-05-23T00:46:52.659Z,85.26
2019-05-23T00:49:24.667Z,85.29
2019-05-23T00:51:55.704Z,85.30
2019-05-23T00:54:30.063Z,85.41
2019-05-23T00:57:01.019Z,84.85
2019-05-23T00:59:31.489Z,85.27
2019-05-23T01:02:02.512Z,85.53
2019-05-23T01:04:33.756Z,85.25
2019-05-23T01:07:04.889Z,84.85
2019-05-23T01:09:36.941Z,86.00
2019-05-23T01:12:08.645Z,85.33
2019-05-23T01:14:39.383Z,85.48
2019-05-23T01:17:11.179Z,85.60
2019-05-23T01:19:42.326Z,85.80
2019-05-23T01:22:14.163Z,86.04
2019-05-23T01:24:46.882Z,86.29
2019-05-23T01:27:17.631Z,87.04
2019-05-23T01:29:50.363Z,87.15
2019-05-23T01:32:42.493Z,86.62
2019-05-23T01:35:17.499Z,86.49
2019-05-23T01:37:48.429Z,87.07
2019-05-23T01:40:19.956Z,86.29
2019-05-23T01:42:51.436Z,86.71
2019-05-23T01:45:22.783Z,86.83
2019-05-23T01:47:53.340Z,86.69
2019-05-23T01:50:26.041Z,86.74
2019-05-23T01:52:57.866Z,86.44
2019-05-23T01:55:28.166Z,86.46
2019-05-23T01:57:58.329Z,86.34
2019-05-23T02:00:31.493Z,86.47
2019-05-23T02:03:02.038Z,86.13
2019-05-23T02:05:33.425Z,86.37
2019-05-23T02:08:04.021Z,86.52
2019-05-23T02:10:34.560Z,85.92
2019-05-23T02:13:04.695Z,86.55
2019-05-23T02:15:34.972Z,87.37
2019-05-23T02:18:06.306Z,87.09
2019-05-23T02:20:37.233Z,87.20
2019-05-23T02:23:09.605Z,86.75
2019-05-23T02:25:42.813Z,87.00
2019-05-23T02:28:13.919Z,86.66
2019-05-23T02:30:44.225Z,86.34
2019-05-23T02:33:15.071Z,86.47
2019-05-23T02:35:45.184Z,86.84
2019-05-23T02:38:29.229Z,86.69
2019-05-23T02:41:22.391Z,86.55
2019-05-23T02:43:56.859Z,86.51
2019-05-23T02:46:34.517Z,86.22
2019-05-23T02:49:07.490Z,86.34
2019-05-23T02:51:39.519Z,87.11
2019-05-23T02:54:13.968Z,86.75
2019-05-23T02:56:51.773Z,86.52
2019-05-23T02:59:51.671Z,86.29
2019-05-23T03:02:56.245Z,86.87
2019-05-23T03:05:31.270Z,86.92
2019-05-23T03:08:08.683Z,86.86
2019-05-23T03:10:57.200Z,87.11
2019-05-23T03:13:34.318Z,86.79
2019-05-23T03:16:05.895Z,87.04
2019-05-23T03:18:41.524Z,86.95
2019-05-23T03:21:15.542Z,87.41
2019-05-23T03:23:49.837Z,87.03
2019-05-23T03:26:53.831Z,87.42
2019-05-23T03:29:23.952Z,87.62
2019-05-23T03:32:00.255Z,87.34
2019-05-23T03:34:33.063Z,87.22
2019-05-23T03:37:04.954Z,87.47
2019-05-23T03:39:35.214Z,87.73
2019-05-23T03:42:05.433Z,87.76
2019-05-23T03:44:36.321Z,87.55
2019-05-23T03:47:08.178Z,87.59
2019-05-23T03:49:42.440Z,87.76
2019-05-23T03:52:19.125Z,87.45
2019-05-23T03:54:54.456Z,87.73
2019-05-23T03:57:26.083Z,87.31
2019-05-23T04:00:01.828Z,87.82
2019-05-23T04:02:35.040Z,88.23
2019-05-23T04:05:08.067Z,88.55
2019-05-23T04:07:38.784Z,87.60
2019-05-23T04:10:11.090Z,87.43
2019-05-23T04:12:41.269Z,88.16
2019-05-23T04:15:12.753Z,87.47
2019-05-23T04:17:46.271Z,87.55
2019-05-23T04:20:18.225Z,87.38
2019-05-23T04:22:48.507Z,87.31
2019-05-23T04:25:19.408Z,86.40
2019-05-23T04:27:52.883Z,86.60
2019-05-23T04:30:23.154Z,86.85
2019-05-23T04:32:58.019Z,87.14
2019-05-23T04:35:29.728Z,87.04
2019-05-23T04:37:59.893Z,87.49
2019-05-23T04:40:33.469Z,87.11
2019-05-23T04:43:07.454Z,87.42
2019-05-23T04:45:38.344Z,87.27
2019-05-23T04:48:08.873Z,87.46
2019-05-23T04:50:39.112Z,87.48
2019-05-23T04:53:09.698Z,87.05
2019-05-23T04:55:40.171Z,87.15
2019-05-23T04:58:10.905Z,87.48
2019-05-23T05:00:41.290Z,87.45
2019-05-23T05:03:12.946Z,87.55
2019-05-23T05:05:44.245Z,87.32
2019-05-23T05:08:14.438Z,86.85
2019-05-23T05:10:45.075Z,86.98
2019-05-23T05:13:15.273Z,86.80
2019-05-23T05:15:45.619Z,86.00
2019-05-23T05:18:16.567Z,85.64
2019-05-23T05:20:47.572Z,84.86
2019-05-23T05:23:17.708Z,85.31
2019-05-23T05:25:47.798Z,84.70
2019-05-23T05:28:17.893Z,84.33
2019-05-23T05:30:48.255Z,84.20
2019-05-23T05:33:18.715Z,84.44
2019-05-23T05:35:48.886Z,83.64
2019-05-23T05:38:19.628Z,82.84
2019-05-23T05:40:56.514Z,81.87
2019-05-23T05:43:21.782Z,78.92
2019-05-23T05:45:52.594Z,79.48
2019-05-23T05:48:23.019Z,78.21
2019-05-23T05:50:53.965Z,74.58
2019-05-23T05:53:24.589Z,73.69
2019-05-23T05:55:54.853Z,72.25
2019-05-23T05:58:25.107Z,72.04
2019-05-23T06:01:08.950Z,70.47
2019-05-23T06:03:39.578Z,68.67
2019-05-23T06:06:27.004Z,69.17
2019-05-23T06:08:59.837Z,68.60
2019-05-23T06:11:49.672Z,68.09
2019-05-23T06:14:19.823Z,67.87
2019-05-23T06:16:51.894Z,67.28
2019-05-23T06:19:22.363Z,66.87
2019-05-23T06:21:52.520Z,64.50
2019-05-23T06:24:39.573Z,64.10
2019-05-23T06:26:55.249Z,65.02
2019-05-23T06:29:25.879Z,64.51
2019-05-23T06:31:56.973Z,60.76
2019-05-23T06:34:27.548Z,61.70
2019-05-23T06:36:58.786Z,59.05
2019-05-23T06:39:29.038Z,58.71
2019-05-23T06:41:59.203Z,58.29
2019-05-23T06:44:29.572Z,57.70
2019-05-23T06:46:59.825Z,57.78
2019-05-23T06:49:30.018Z,55.51
2019-05-23T06:52:00.391Z,55.74
2019-05-23T06:54:30.538Z,54.83
2019-05-23T06:57:00.818Z,52.69
2019-05-23T06:59:30.956Z,52.25
2019-05-23T07:02:03.083Z,53.50
2019-05-23T07:04:35.809Z,51.04
2019-05-23T07:07:07.439Z,51.35
2019-05-23T07:09:40.806Z,49.16
2019-05-23T07:12:12.724Z,47.83
2019-05-23T07:14:46.155Z,47.07
2019-05-23T07:17:19.552Z,46.94
2019-05-23T07:19:49.649Z,45.29
2019-05-23T07:22:20.987Z,44.25
2019-05-23T07:24:58.093Z,36.77
2019-05-23T07:27:25.603Z,39.21
2019-05-23T07:29:55.776Z,41.18
2019-05-23T07:32:25.926Z,40.23
2019-05-23T07:34:56.087Z,42.04
2019-05-23T07:37:26.210Z,43.17
2019-05-23T07:39:56.333Z,42.48
2019-05-23T07:42:27.110Z,40.80
2019-05-23T07:44:58.619Z,41.51
2019-05-23T07:47:28.816Z,40.51
2019-05-23T07:49:59.004Z,42.31
2019-05-23T07:52:29.486Z,40.74
2019-05-23T07:55:07.639Z,38.53
2019-05-23T07:57:39.225Z,38.89
2019-05-23T08:00:17.999Z,37.78
2019-05-23T08:02:50.372Z,39.48
2019-05-23T08:05:22.964Z,39.03
2019-05-23T08:07:54.055Z,37.38
2019-05-23T08:10:33.646Z,37.50
2019-05-23T08:12:56.196Z,36.97
2019-05-23T08:15:26.490Z,35.73
2019-05-23T08:17:57.004Z,37.46
2019-05-23T08:20:28.080Z,37.15
2019-05-23T08:22:58.324Z,36.20
2019-05-23T08:25:28.552Z,36.11
2019-05-23T08:27:59.019Z,34.82
2019-05-23T08:30:29.160Z,33.81
2019-05-23T08:32:59.361Z,33.31
2019-05-23T08:35:29.824Z,32.75
2019-05-23T08:38:00.190Z,32.61
2019-05-23T08:40:33.394Z,31.26
2019-05-23T08:43:04.429Z,32.94
2019-05-23T08:45:34.577Z,34.69
2019-05-23T08:48:05.032Z,32.28
2019-05-23T08:50:35.275Z,33.54
2019-05-23T08:53:07.924Z,31.32
2019-05-23T08:55:38.112Z,32.09
2019-05-23T08:58:10.280Z,30.83
2019-05-23T09:00:41.487Z,31.48
2019-05-23T09:03:12.896Z,31.48
2019-05-23T09:05:44.868Z,33.00
2019-05-23T09:08:17.025Z,30.94
2019-05-23T09:10:47.547Z,31.72
2019-05-23T09:13:18.318Z,31.48
2019-05-23T09:15:52.839Z,30.63
2019-05-23T09:18:20.541Z,30.90
2019-05-23T09:20:53.998Z,31.61
2019-05-23T09:23:24.228Z,31.45
2019-05-23T09:25:54.753Z,31.22
2019-05-23T09:28:25.213Z,31.40
2019-05-23T09:30:55.676Z,31.90
2019-05-23T09:33:25.831Z,30.74
2019-05-23T09:35:56.054Z,32.30
2019-05-23T09:38:26.377Z,35.35
2019-05-23T09:40:56.506Z,33.64
2019-05-23T09:43:27.157Z,32.01
2019-05-23T09:45:58.198Z,33.30
2019-05-23T09:48:28.749Z,34.70
2019-05-23T09:50:58.975Z,32.10
2019-05-23T09:53:29.280Z,30.83
2019-05-23T09:56:00.884Z,31.88
2019-05-23T09:58:31.096Z,30.92
2019-05-23T10:01:01.336Z,30.25
2019-05-23T10:03:31.908Z,30.68
2019-05-23T10:06:02.033Z,31.54
2019-05-23T10:08:32.341Z,31.31
2019-05-23T10:11:03.891Z,31.11
2019-05-23T10:13:39.054Z,31.36
2019-05-23T10:16:08.516Z,30.69
2019-05-23T10:18:39.926Z,31.32
2019-05-23T10:21:10.345Z,31.65
2019-05-23T10:23:40.484Z,30.43
2019-05-23T10:26:11.383Z,32.04
2019-05-23T10:28:41.791Z,31.44
2019-05-23T10:31:12.389Z,31.21
2019-05-23T10:33:42.903Z,31.80
2019-05-23T10:36:13.383Z,32.14
2019-05-23T10:38:46.858Z,32.06
2019-05-23T10:41:17.304Z,32.20
2019-05-23T10:43:47.475Z,32.69
2019-05-23T10:46:17.578Z,29.95
2019-05-23T10:48:48.052Z,30.94
2019-05-23T10:51:18.372Z,30.83
2019-05-23T10:53:48.534Z,31.05
2019-05-23T10:56:20.627Z,31.53
2019-05-23T10:58:50.679Z,32.13
2019-05-23T11:01:21.518Z,32.75
2019-05-23T11:03:51.816Z,31.15
2019-05-23T11:06:22.245Z,31.59
2019-05-23T11:08:53.435Z,32.36
2019-05-23T11:11:24.388Z,29.80
2019-05-23T11:13:55.293Z,30.95
2019-05-23T11:16:25.670Z,33.04
2019-05-23T11:18:56.023Z,33.28
2019-05-23T11:21:26.298Z,33.43
2019-05-23T11:23:57.481Z,32.34
2019-05-23T11:26:28.790Z,33.31
2019-05-23T11:28:59.018Z,33.19
2019-05-23T11:31:29.578Z,33.04
2019-05-23T11:34:00.889Z,33.97
2019-05-23T11:36:36.015Z,34.42
2019-05-23T11:39:06.666Z,33.63
2019-05-23T11:41:37.422Z,35.21
2019-05-23T11:44:08.550Z,34.29
2019-05-23T11:46:40.054Z,34.96
2019-05-23T11:49:10.398Z,35.53
2019-05-23T11:51:40.771Z,36.07
2019-05-23T11:54:11.290Z,33.96
2019-05-23T11:56:42.431Z,34.52
2019-05-23T11:59:12.591Z,34.30
2019-05-23T12:01:59.893Z,33.87
2019-05-23T12:04:39.676Z,34.30
2019-05-23T12:07:20.087Z,33.01
2019-05-23T12:09:50.609Z,32.14
2019-05-23T12:12:20.969Z,32.52
2019-05-23T12:14:51.184Z,32.70
2019-05-23T12:17:21.994Z,33.47
2019-05-23T12:19:52.150Z,33.49
2019-05-23T12:22:23.018Z,32.16
2019-05-23T12:24:53.157Z,33.26
2019-05-23T12:27:23.281Z,32.28
2019-05-23T12:29:53.600Z,32.56
2019-05-23T12:32:24.200Z,32.94
2019-05-23T12:35:09.764Z,31.92
2019-05-23T12:37:26.500Z,31.79
2019-05-23T12:39:57.154Z,32.58
2019-05-23T12:42:27.467Z,30.66
2019-05-23T12:44:57.673Z,31.26
2019-05-23T12:47:39.849Z,29.75
2019-05-23T12:50:13.966Z,30.75
2019-05-23T12:52:44.161Z,30.97
2019-05-23T12:55:14.851Z,31.88
2019-05-23T12:57:45.241Z,32.39
2019-05-23T13:00:35.471Z,29.59
2019-05-23T13:03:06.895Z,30.49
2019-05-23T13:05:38.222Z,28.73
2019-05-23T13:08:08.679Z,30.06
2019-05-23T13:10:39.384Z,29.23
2019-05-23T13:13:10.637Z,29.83
2019-05-23T13:15:42.233Z,29.76
2019-05-23T13:18:12.645Z,29.12
2019-05-23T13:20:43.717Z,29.29
2019-05-23T13:23:20.654Z,29.89
2019-05-23T13:25:46.361Z,30.24
2019-05-23T13:28:16.782Z,30.28
2019-05-23T13:30:47.482Z,29.48
2019-05-23T13:33:17.922Z,30.43
2019-05-23T13:35:48.249Z,31.53
2019-05-23T13:38:21.167Z,30.72
2019-05-23T13:40:51.427Z,32.90
2019-05-23T13:43:21.655Z,29.85
2019-05-23T13:45:51.793Z,28.36
2019-05-23T13:48:22.036Z,28.37
2019-05-23T13:50:52.368Z,28.79
2019-05-23T13:53:24.739Z,27.46
2019-05-23T13:55:55.423Z,27.60
2019-05-23T13:58:25.877Z,27.89
2019-05-23T14:00:57.331Z,28.31
2019-05-23T14:03:28.930Z,28.74
2019-05-23T14:05:59.493Z,28.13
2019-05-23T14:08:30.264Z,31.03
2019-05-23T14:11:00.709Z,28.84
2019-05-23T14:13:32.030Z,29.49
2019-05-23T14:16:02.691Z,29.24
2019-05-23T14:18:34.598Z,28.66
2019-05-23T14:21:05.027Z,28.65
2019-05-23T14:23:35.283Z,29.70
2019-05-23T14:26:06.256Z,27.53
2019-05-23T14:28:36.495Z,28.41
2019-05-23T14:31:17.924Z,28.97
2019-05-23T14:34:07.218Z,28.82
2019-05-23T14:36:56.470Z,27.01
2019-05-23T14:39:38.587Z,27.83
2019-05-23T14:42:24.677Z,28.10
2019-05-23T14:44:55.086Z,27.98
2019-05-23T14:47:44.694Z,27.39
2019-05-23T14:50:31.170Z,27.05
2019-05-23T14:53:03.804Z,26.32
2019-05-23T14:55:34.310Z,26.72
2019-05-23T14:58:05.235Z,28.89
2019-05-23T15:00:36.052Z,28.64
2019-05-23T15:03:06.898Z,28.45
2019-05-23T15:05:37.829Z,27.27
2019-05-23T15:08:08.083Z,28.71
2019-05-23T15:10:38.539Z,27.97
2019-05-23T15:13:08.912Z,28.17
2019-05-23T15:15:39.181Z,27.66
2019-05-23T15:18:11.428Z,27.18
2019-05-23T15:20:44.149Z,28.23
2019-05-23T15:23:14.346Z,27.44
2019-05-23T15:25:44.515Z,27.44
2019-05-23T15:28:14.786Z,28.16
2019-05-23T15:30:45.152Z,27.54
2019-05-23T15:33:15.595Z,28.12
2019-05-23T15:35:45.996Z,30.14
2019-05-23T15:38:20.287Z,27.13
2019-05-23T15:40:48.228Z,27.13
2019-05-23T15:43:18.404Z,27.43
2019-05-23T15:45:49.927Z,27.85
2019-05-23T15:48:23.070Z,28.14
2019-05-23T15:50:53.337Z,28.56
2019-05-23T15:53:56.344Z,27.67
2019-05-23T15:57:01.631Z,27.03
2019-05-23T15:59:46.331Z,27.28
2019-05-23T16:02:23.173Z,27.00
2019-05-23T16:05:00.051Z,27.45
2019-05-23T16:07:33.367Z,29.30
2019-05-23T16:10:05.630Z,27.61
2019-05-23T16:12:39.070Z,27.19
2019-05-23T16:15:09.731Z,28.16
2019-05-23T16:17:40.122Z,26.90
2019-05-23T16:20:13.831Z,24.79
2019-05-23T16:22:46.921Z,27.25
2019-05-23T16:25:18.087Z,26.97
2019-05-23T16:27:54.708Z,27.07
2019-05-23T16:30:28.818Z,25.92
2019-05-23T16:33:00.510Z,26.21
2019-05-23T16:35:33.830Z,26.53
2019-05-23T16:38:07.283Z,27.47
2019-05-23T16:40:37.763Z,27.12
2019-05-23T16:43:11.463Z,25.97
2019-05-23T16:45:41.830Z,26.81
2019-05-23T16:48:14.043Z,28.78
2019-05-23T16:50:44.466Z,28.99
2019-05-23T16:53:20.425Z,28.34
2019-05-23T16:56:00.221Z,28.36
2019-05-23T16:58:48.266Z,26.81
2019-05-23T17:01:27.214Z,27.68
2019-05-23T17:04:10.427Z,27.04
2019-05-23T17:06:46.781Z,26.63
2019-05-23T17:09:35.480Z,27.26
2019-05-23T17:12:34.174Z,26.73
2019-05-23T17:15:12.413Z,26.68
2019-05-23T17:18:02.827Z,27.59
2019-05-23T17:20:51.629Z,26.58
2019-05-23T17:23:37.563Z,27.65
2019-05-23T17:26:14.450Z,27.52
2019-05-23T17:28:48.512Z,27.32
2019-05-23T17:31:20.419Z,27.18
2019-05-23T17:33:51.567Z,28.46
2019-05-23T17:36:22.496Z,27.40
2019-05-23T17:38:53.074Z,27.85
2019-05-23T17:41:24.043Z,28.20
2019-05-23T17:43:55.598Z,28.06
2019-05-23T17:46:28.853Z,29.65
2019-05-23T17:49:00.654Z,29.50
2019-05-23T17:51:30.947Z,29.16
2019-05-23T17:54:02.446Z,30.38
2019-05-23T17:56:34.324Z,30.19
2019-05-23T17:59:04.611Z,30.45
2019-05-23T18:01:40.778Z,31.02
2019-05-23T18:04:11.305Z,31.19
2019-05-23T18:06:41.582Z,33.17
2019-05-23T18:09:13.603Z,31.62
2019-05-23T18:11:44.128Z,31.33
2019-05-23T18:14:15.882Z,30.85
2019-05-23T18:16:46.484Z,31.42
2019-05-23T18:19:18.258Z,31.70
2019-05-23T18:21:48.931Z,31.99
2019-05-23T18:24:19.347Z,32.59
2019-05-23T18:26:51.986Z,31.98
2019-05-23T18:29:22.750Z,32.90
2019-05-23T18:31:53.234Z,33.05
2019-05-23T18:34:23.843Z,33.58
2019-05-23T18:36:56.541Z,34.08
2019-05-23T18:39:27.120Z,34.57
2019-05-23T18:42:00.931Z,34.02
2019-05-23T18:44:35.983Z,33.58
2019-05-23T18:47:10.833Z,33.63
2019-05-23T18:49:41.096Z,35.08
2019-05-23T18:52:12.008Z,35.33
2019-05-23T18:54:45.413Z,35.34
2019-05-23T18:57:16.024Z,35.74
2019-05-23T18:59:48.824Z,35.98
2019-05-23T19:02:22.411Z,36.31
2019-05-23T19:04:53.399Z,36.62
2019-05-23T19:07:25.108Z,37.79
2019-05-23T19:09:55.937Z,38.40
2019-05-23T19:12:29.380Z,40.04
2019-05-23T19:14:59.833Z,40.27
2019-05-23T19:17:30.228Z,40.72
2019-05-23T19:20:00.543Z,41.17
2019-05-23T19:22:30.988Z,43.50
2019-05-23T19:25:05.909Z,44.35
2019-05-23T19:27:37.049Z,45.55
2019-05-23T19:30:08.372Z,45.77
2019-05-23T19:32:38.794Z,45.71
2019-05-23T19:35:15.241Z,45.11
2019-05-23T19:37:45.825Z,46.76
2019-05-23T19:40:20.548Z,47.29
2019-05-23T19:42:49.768Z,47.88
2019-05-23T19:45:21.529Z,48.43
2019-05-23T19:47:56.313Z,48.65
2019-05-23T19:50:28.380Z,49.41
2019-05-23T19:52:58.718Z,49.35
2019-05-23T19:55:31.822Z,50.01
2019-05-23T19:58:02.241Z,50.64
2019-05-23T20:00:33.847Z,50.91
2019-05-23T20:03:04.731Z,51.53
2019-05-23T20:05:37.199Z,51.49
2019-05-23T20:08:09.177Z,51.67
2019-05-23T20:10:39.609Z,51.64
2019-05-23T20:13:09.843Z,51.61
2019-05-23T20:15:40.093Z,51.56
2019-05-23T20:18:11.348Z,51.41
2019-05-23T20:20:41.757Z,51.01
2019-05-23T20:23:15.806Z,52.49
2019-05-23T20:25:44.686Z,53.14
2019-05-23T20:28:15.297Z,53.44
2019-05-23T20:30:57.290Z,54.01
2019-05-23T20:33:27.945Z,54.24
2019-05-23T20:36:03.524Z,54.71
2019-05-23T20:38:34.046Z,54.70
2019-05-23T20:41:04.469Z,54.57
2019-05-23T20:43:36.790Z,54.87
2019-05-23T20:46:06.948Z,55.37
2019-05-23T20:48:38.450Z,55.36
2019-05-23T20:51:08.817Z,55.24
2019-05-23T20:53:39.129Z,56.05
2019-05-23T20:56:10.497Z,55.99
2019-05-23T20:58:40.705Z,56.46
2019-05-23T21:01:21.740Z,56.43
2019-05-23T21:03:54.550Z,56.19
2019-05-23T21:06:24.822Z,56.29
2019-05-23T21:08:55.025Z,56.54
2019-05-23T21:11:25.313Z,55.99
2019-05-23T21:13:55.597Z,56.44
2019-05-23T21:16:25.837Z,56.50
2019-05-23T21:18:56.084Z,56.49
2019-05-23T21:21:26.302Z,56.65
2019-05-23T21:23:57.166Z,56.68
2019-05-23T21:26:27.581Z,56.91
2019-05-23T21:28:59.028Z,57.20
2019-05-23T21:31:30.203Z,57.01
2019-05-23T21:34:00.431Z,57.26
2019-05-23T21:36:31.892Z,57.25
2019-05-23T21:39:02.095Z,57.49
2019-05-23T21:41:33.575Z,57.89
2019-05-23T21:44:05.647Z,58.13
2019-05-23T21:46:40.186Z,58.73
2019-05-23T21:49:10.475Z,58.47
2019-05-23T21:51:40.662Z,58.41
2019-05-23T21:54:10.800Z,58.60
2019-05-23T21:56:42.078Z,59.13
2019-05-23T21:59:12.309Z,59.75
2019-05-23T22:01:58.322Z,60.34
2019-05-23T22:04:31.806Z,60.65
2019-05-23T22:07:03.637Z,60.99
2019-05-23T22:09:33.915Z,61.67
2019-05-23T22:12:06.431Z,61.55
2019-05-23T22:14:37.331Z,61.86
2019-05-23T22:17:13.191Z,61.96
2019-05-23T22:19:51.400Z,61.86
2019-05-23T22:22:21.731Z,62.07
2019-05-23T22:24:52.112Z,62.16
2019-05-23T22:27:22.822Z,62.49
2019-05-23T22:29:52.950Z,62.62
2019-05-23T22:32:25.942Z,63.34
2019-05-23T22:35:02.459Z,63.95
2019-05-23T22:37:32.673Z,64.15
2019-05-23T22:40:04.055Z,64.30
2019-05-23T22:42:36.569Z,64.33
2019-05-23T22:45:10.741Z,64.44
2019-05-23T22:47:41.007Z,64.93
2019-05-23T22:50:12.943Z,64.93
2019-05-23T22:52:43.052Z,65.60
2019-05-23T22:55:13.177Z,65.93
2019-05-23T22:57:43.358Z,65.99
2019-05-23T23:00:15.269Z,66.20
2019-05-23T23:02:46.234Z,66.51
2019-05-23T23:05:16.483Z,66.91
2019-05-23T23:07:46.578Z,67.15
2019-05-23T23:10:16.822Z,67.44
2019-05-23T23:12:47.015Z,67.55
2019-05-23T23:15:17.406Z,67.87
2019-05-23T23:17:47.566Z,67.48
2019-05-23T23:20:17.810Z,67.72
2019-05-23T23:22:47.923Z,68.23
2019-05-23T23:25:18.089Z,68.36
2019-05-23T23:27:48.255Z,68.43
2019-05-23T23:30:20.487Z,68.65
2019-05-23T23:32:50.583Z,68.90
2019-05-23T23:35:21.141Z,69.05
2019-05-23T23:37:51.265Z,69.01
2019-05-23T23:40:21.462Z,69.19
2019-05-23T23:42:51.805Z,69.46
2019-05-23T23:45:40.870Z,69.68
2019-05-23T23:48:29.197Z,69.64
2019-05-23T23:51:17.244Z,69.87
2019-05-23T23:54:04.968Z,69.57
2019-05-23T23:56:53.481Z,69.90
2019-05-23T23:59:22.799Z,70.08
